createdAt,value
2019-04-22T03:26:31.770Z,9.90
2019-04-22T04:51:53.707Z,11.47
2019-04-22T04:57:00.893Z,11.33
2019-04-22T04:59:30.384Z,11.67
2019-04-22T05:01:52.800Z,10.57
2019-04-22T05:06:53.688Z,10.97
2019-04-22T05:09:19.544Z,10.50
2019-04-22T05:11:51.980Z,10.57
2019-04-22T05:14:22.908Z,11.03
2019-04-22T05:16:49.435Z,9.90
2019-04-22T05:19:20.931Z,10.40
2019-04-22T05:21:53.374Z,10.20
2019-04-22T05:24:22.764Z,9.63
2019-04-22T05:27:05.264Z,9.33
2019-04-22T05:29:17.080Z,9.60
2019-04-22T05:31:52.250Z,9.10
2019-04-22T05:34:16.294Z,9.23
2019-04-22T05:36:40.347Z,8.40
2019-04-22T05:39:12.463Z,8.40
2019-04-22T05:41:43.152Z,8.13
2019-04-22T05:44:12.504Z,7.53
2019-04-22T05:46:34.689Z,7.77
2019-04-22T05:49:13.226Z,7.10
2019-04-22T05:51:41.969Z,7.37
2019-04-22T05:54:22.891Z,7.57
2019-04-22T05:56:40.839Z,6.60
2019-04-22T05:59:20.827Z,7.53
2019-04-22T06:01:52.012Z,7.60
2019-04-22T06:04:45.265Z,7.07
2019-04-22T06:07:13.460Z,7.40
2019-04-22T06:09:38.892Z,6.80
2019-04-22T06:12:04.905Z,7.90
2019-04-22T06:14:40.678Z,7.07
2019-04-22T06:17:20.255Z,6.87
2019-04-22T06:19:54.198Z,7.27
2019-04-22T06:22:22.417Z,7.77
2019-04-22T06:24:54.113Z,7.03
2019-04-22T06:27:21.845Z,7.53
2019-04-22T06:29:41.488Z,7.20
2019-04-22T06:32:26.437Z,7.20
2019-04-22T06:35:03.533Z,7.20
2019-04-22T06:37:26.113Z,7.17
2019-04-22T06:39:53.704Z,7.80
2019-04-22T06:42:29.025Z,8.03
2019-04-22T06:44:58.206Z,7.70
2019-04-22T06:47:40.010Z,7.10
2019-04-22T06:50:07.746Z,7.13
2019-04-22T06:55:16.670Z,7.47
2019-04-22T06:57:52.357Z,6.60
2019-04-22T07:00:26.809Z,6.63
2019-04-22T07:03:26.287Z,7.10
2019-04-22T07:05:28.535Z,6.73
2019-04-22T07:08:04.439Z,6.67
2019-04-22T07:13:04.789Z,6.67
2019-04-22T07:15:46.299Z,6.50
2019-04-22T07:18:15.772Z,6.23
2019-04-22T07:20:42.194Z,6.30
2019-04-22T07:23:08.500Z,6.53
2019-04-22T07:25:34.983Z,6.10
2019-04-22T07:28:07.237Z,6.33
2019-04-22T07:30:40.965Z,6.03
2019-04-22T07:36:33.526Z,6.22
2019-04-22T07:39:00.950Z,5.92
2019-04-22T07:41:28.682Z,5.80
2019-04-22T07:47:10.093Z,6.90
2019-04-22T07:52:18.762Z,5.80
2019-04-22T07:54:58.333Z,6.03
2019-04-22T07:57:33.332Z,6.23
2019-04-22T08:02:53.635Z,6.70
2019-04-22T08:05:37.847Z,6.20
2019-04-22T08:09:17.501Z,6.03
2019-04-22T08:12:28.165Z,6.07
2019-04-22T08:14:55.132Z,6.65
2019-04-22T08:20:07.038Z,6.28
2019-04-22T08:22:27.422Z,7.25
2019-04-22T08:25:00.273Z,6.10
2019-04-22T08:27:33.340Z,6.87
2019-04-22T08:32:28.526Z,5.92
2019-04-22T08:34:55.381Z,5.65
2019-04-22T08:40:03.889Z,5.90
2019-04-22T08:42:36.539Z,5.70
2019-04-22T08:45:11.647Z,5.42
2019-04-22T08:47:30.947Z,5.60
2019-04-22T08:50:13.858Z,5.55
2019-04-22T08:52:38.583Z,5.30
2019-04-22T08:55:08.134Z,5.37
2019-04-22T08:57:46.958Z,5.53
2019-04-22T09:00:07.165Z,5.17
2019-04-22T09:02:51.541Z,5.33
2019-04-22T09:05:11.946Z,4.97
2019-04-22T09:07:39.723Z,5.23
2019-04-22T09:10:24.142Z,5.60
2019-04-22T09:15:26.359Z,4.87
2019-04-22T09:20:36.889Z,4.70
2019-04-22T09:23:24.648Z,4.50
2019-04-22T09:32:19.033Z,4.58
2019-04-22T09:35:10.214Z,4.72
2019-04-22T09:37:55.995Z,5.57
2019-04-22T09:40:39.279Z,4.90
2019-04-22T09:42:50.398Z,4.40
2019-04-22T09:45:21.581Z,4.93
2019-04-22T09:48:23.997Z,4.87
2019-04-22T09:50:52.507Z,5.28
2019-04-22T09:56:37.460Z,4.40
2019-04-22T09:59:48.467Z,4.67
2019-04-22T10:02:26.723Z,4.10
2019-04-22T10:05:00.200Z,4.60
2019-04-22T10:10:46.905Z,3.87
2019-04-22T10:13:18.955Z,2.95
2019-04-22T10:15:42.934Z,2.90
2019-04-22T10:18:20.353Z,3.10
2019-04-22T10:20:45.898Z,2.77
2019-04-22T10:26:26.843Z,2.98
2019-04-22T10:28:53.269Z,2.77
2019-04-22T10:31:23.830Z,2.70
2019-04-22T10:33:46.415Z,2.30
2019-04-22T10:35:57.398Z,2.70
2019-04-22T10:38:26.302Z,2.40
2019-04-22T10:40:54.542Z,2.40
2019-04-22T10:43:23.202Z,2.42
2019-04-22T10:45:52.186Z,2.35
2019-04-22T10:48:19.762Z,2.20
2019-04-22T10:51:04.747Z,2.20
2019-04-22T10:53:33.395Z,2.40
2019-04-22T10:56:12.661Z,2.30
2019-04-22T10:58:52.928Z,2.67
2019-04-22T11:01:25.641Z,2.40
2019-04-22T11:03:59.464Z,2.58
2019-04-22T11:06:56.353Z,2.30
2019-04-22T11:09:25.309Z,2.27
2019-04-22T11:12:16.722Z,2.35
2019-04-22T11:14:45.591Z,1.98
2019-04-22T11:17:19.554Z,2.27
2019-04-22T11:19:47.951Z,1.98
2019-04-22T11:22:38.882Z,2.05
2019-04-22T11:25:07.722Z,2.22
2019-04-22T11:27:45.510Z,2.00
2019-04-22T11:30:27.939Z,1.70
2019-04-22T11:32:54.199Z,2.12
2019-04-22T11:35:23.636Z,2.40
2019-04-22T11:37:54.964Z,2.07
2019-04-22T11:40:36.402Z,1.90
2019-04-22T11:42:59.609Z,2.03
2019-04-22T11:45:33.249Z,1.82
2019-04-22T11:48:11.187Z,2.00
2019-04-22T11:51:00.045Z,1.77
2019-04-22T11:53:22.640Z,1.90
2019-04-22T11:55:50.798Z,1.90
2019-04-22T11:58:18.975Z,1.60
2019-04-22T12:00:49.945Z,1.83
2019-04-22T12:03:23.085Z,1.93
2019-04-22T12:05:53.654Z,1.90
2019-04-22T12:08:21.263Z,2.10
2019-04-22T12:10:54.822Z,2.13
2019-04-22T12:13:21.864Z,2.47
2019-04-22T12:15:51.147Z,2.47
2019-04-22T12:18:19.635Z,1.98
2019-04-22T12:21:01.340Z,2.22
2019-04-22T12:23:56.896Z,2.37
2019-04-22T12:26:46.387Z,2.35
2019-04-22T12:29:17.168Z,2.75
2019-04-22T12:31:45.339Z,2.50
2019-04-22T12:34:27.145Z,2.60
2019-04-22T12:40:45.448Z,2.70
2019-04-22T12:43:22.169Z,2.50
2019-04-22T12:49:07.864Z,3.00
2019-04-22T12:55:17.288Z,2.90
2019-04-22T12:58:05.467Z,3.20
2019-04-22T13:00:34.300Z,2.90
2019-04-22T13:03:03.021Z,2.95
2019-04-22T13:05:38.296Z,2.90
2019-04-22T13:08:13.913Z,3.17
2019-04-22T13:11:02.902Z,3.33
2019-04-22T13:13:25.123Z,3.35
2019-04-22T13:15:59.388Z,3.02
2019-04-22T13:18:35.521Z,3.17
2019-04-22T13:20:56.742Z,3.05
2019-04-22T13:23:29.653Z,3.03
2019-04-22T13:26:23.234Z,2.97
2019-04-22T13:28:54.835Z,3.52
2019-04-22T13:31:26.707Z,3.45
2019-04-22T13:34:02.312Z,2.83
2019-04-22T13:36:31.713Z,3.70
2019-04-22T13:39:07.265Z,3.30
2019-04-22T13:41:46.426Z,2.98
2019-04-22T13:44:23.034Z,3.17
2019-04-22T13:47:10.395Z,2.85
2019-04-22T13:50:16.816Z,2.80
2019-04-22T13:55:05.335Z,2.87
2019-04-22T13:57:44.074Z,2.97
2019-04-22T13:59:58.129Z,2.93
2019-04-22T14:02:52.786Z,2.90
2019-04-22T14:05:22.808Z,2.80
2019-04-22T14:07:54.835Z,2.83
2019-04-22T14:10:22.879Z,2.67
2019-04-22T14:13:12.222Z,2.60
2019-04-22T14:15:46.737Z,2.47
2019-04-22T14:18:16.898Z,2.50
2019-04-22T14:20:58.674Z,3.02
2019-04-22T14:23:32.992Z,2.67
2019-04-22T14:26:07.302Z,2.87
2019-04-22T14:28:42.023Z,2.67
2019-04-22T14:31:28.556Z,3.27
2019-04-22T14:34:04.998Z,2.67
2019-04-22T14:36:31.215Z,3.00
2019-04-22T14:38:59.522Z,2.77
2019-04-22T14:41:42.577Z,2.92
2019-04-22T14:47:13.125Z,2.62
2019-04-22T14:49:47.253Z,3.10
2019-04-22T14:52:31.333Z,3.00
2019-04-22T14:55:13.828Z,2.67
2019-04-22T14:57:21.363Z,2.80
2019-04-22T14:59:59.770Z,3.20
2019-04-22T15:02:29.840Z,3.00
2019-04-22T15:05:01.422Z,3.10
2019-04-22T15:07:30.811Z,2.70
2019-04-22T15:10:01.955Z,2.80
2019-04-22T15:12:36.703Z,3.20
2019-04-22T15:15:05.800Z,3.43
2019-04-22T15:17:56.979Z,3.33
2019-04-22T15:20:54.297Z,3.37
2019-04-22T15:23:44.752Z,2.93
2019-04-22T15:26:12.573Z,2.97
2019-04-22T15:28:55.488Z,3.40
2019-04-22T15:31:27.154Z,2.90
2019-04-22T15:34:02.668Z,2.80
2019-04-22T15:36:44.325Z,2.63
2019-04-22T15:39:20.838Z,2.40
2019-04-22T15:42:11.795Z,2.40
2019-04-22T15:44:39.920Z,2.37
2019-04-22T15:47:18.846Z,2.80
2019-04-22T15:53:22.072Z,2.87
2019-04-22T15:56:05.018Z,2.80
2019-04-22T15:58:48.881Z,2.70
2019-04-22T16:01:32.066Z,2.67
2019-04-22T16:07:01.202Z,2.77
2019-04-22T16:09:39.437Z,2.90
2019-04-22T16:12:26.148Z,2.70
2019-04-22T16:14:56.163Z,3.03
2019-04-22T16:17:28.573Z,2.67
2019-04-22T16:20:46.303Z,2.80
2019-04-22T16:23:44.707Z,3.03
2019-04-22T16:26:36.144Z,2.83
2019-04-22T16:29:07.313Z,3.10
2019-04-22T16:31:43.307Z,3.10
2019-04-22T16:34:15.560Z,2.90
2019-04-22T16:36:47.128Z,2.90
2019-04-22T16:39:15.849Z,3.10
2019-04-22T16:41:44.443Z,3.30
2019-04-22T16:44:12.338Z,3.40
2019-04-22T16:46:41.729Z,3.20
2019-04-22T16:49:17.352Z,3.40
2019-04-22T16:51:45.828Z,3.33
2019-04-22T16:54:17.938Z,3.27
2019-04-22T16:56:46.045Z,3.40
2019-04-22T16:59:18.885Z,3.40
2019-04-22T17:02:22.407Z,3.57
2019-04-22T17:05:05.481Z,3.40
2019-04-22T17:07:34.123Z,3.70
2019-04-22T17:10:17.981Z,3.30
2019-04-22T17:16:30.624Z,3.20
2019-04-22T17:18:58.506Z,3.43
2019-04-22T17:21:31.874Z,3.50
2019-04-22T17:24:03.601Z,3.43
2019-04-22T17:26:32.502Z,3.50
2019-04-22T17:29:06.445Z,3.60
2019-04-22T17:31:34.827Z,3.57
2019-04-22T17:34:19.609Z,3.63
2019-04-22T17:36:47.076Z,3.03
2019-04-22T17:39:31.475Z,3.80
2019-04-22T17:42:21.579Z,3.97
2019-04-22T17:45:09.665Z,3.87
2019-04-22T17:47:35.923Z,3.70
2019-04-22T17:50:20.193Z,4.57
2019-04-22T17:52:50.814Z,4.10
2019-04-22T17:55:12.844Z,4.17
2019-04-22T17:57:40.931Z,4.50
2019-04-22T18:00:18.972Z,4.23
2019-04-22T18:02:45.629Z,4.20
2019-04-22T18:05:08.051Z,4.27
2019-04-22T18:08:07.902Z,4.63
2019-04-22T18:10:32.646Z,4.50
2019-04-22T18:13:07.411Z,4.63
2019-04-22T18:15:25.568Z,4.53
2019-04-22T18:18:00.738Z,5.00
2019-04-22T18:20:28.115Z,4.90
2019-04-22T18:22:53.555Z,5.13
2019-04-22T18:25:33.852Z,5.40
2019-04-22T18:28:15.254Z,5.23
2019-04-22T18:30:25.505Z,5.23
2019-04-22T18:33:02.816Z,5.93
2019-04-22T18:35:33.965Z,6.23
2019-04-22T18:38:15.441Z,5.90
2019-04-22T18:40:38.632Z,7.00
2019-04-22T18:43:26.214Z,7.53
2019-04-22T18:45:57.520Z,7.90
2019-04-22T18:48:08.759Z,7.40
2019-04-22T18:50:56.237Z,7.20
2019-04-22T18:53:51.877Z,6.87
2019-04-22T18:55:55.526Z,7.60
2019-04-22T18:58:27.369Z,6.73
2019-04-22T19:00:41.847Z,7.80
2019-04-22T19:03:19.614Z,6.80
2019-04-22T19:06:09.571Z,7.67
2019-04-22T19:08:34.608Z,7.03
2019-04-22T19:16:19.564Z,7.23
2019-04-22T19:18:33.643Z,7.77
2019-04-22T19:21:02.769Z,7.80
2019-04-22T19:23:33.175Z,7.97
2019-04-22T19:25:58.602Z,8.03
2019-04-22T19:31:02.732Z,8.50
2019-04-22T19:33:31.562Z,8.03
2019-04-22T19:36:01.522Z,8.50
2019-04-22T19:38:16.523Z,7.87
2019-04-22T19:41:06.903Z,8.70
2019-04-22T19:43:30.839Z,8.47
2019-04-22T19:45:53.655Z,8.13
2019-04-22T19:48:34.615Z,8.30
2019-04-22T19:50:58.862Z,8.80
2019-04-22T19:53:22.724Z,9.17
2019-04-22T19:55:50.967Z,9.00
2019-04-22T19:58:22.550Z,9.47
2019-04-22T20:01:08.753Z,9.17
2019-04-22T20:04:03.462Z,9.53
2019-04-22T20:06:35.350Z,9.17
2019-04-22T20:09:05.769Z,9.13
2019-04-22T20:11:38.582Z,9.77
2019-04-22T20:14:07.413Z,9.13
2019-04-22T20:16:32.554Z,8.30
2019-04-22T20:19:04.988Z,8.93
2019-04-22T20:21:35.464Z,9.90
2019-04-22T20:23:53.725Z,10.17
2019-04-22T20:26:33.703Z,9.20
2019-04-22T20:29:02.770Z,9.80
2019-04-22T20:31:30.092Z,10.03
2019-04-22T20:34:09.146Z,10.13
2019-04-22T20:36:51.951Z,9.37
2019-04-22T20:38:59.533Z,9.17
2019-04-22T20:41:31.551Z,9.87
2019-04-22T20:44:13.285Z,9.87
2019-04-22T20:46:31.160Z,9.00
2019-04-22T20:49:00.553Z,9.07
2019-04-22T20:51:45.428Z,9.47
2019-04-22T20:54:02.752Z,9.47
2019-04-22T20:56:30.092Z,9.27
2019-04-22T20:59:02.066Z,9.60
2019-04-22T21:01:30.087Z,9.00
2019-04-22T21:03:50.628Z,8.97
2019-04-22T21:06:32.247Z,8.93
2019-04-22T21:09:00.899Z,9.00
2019-04-22T21:11:30.128Z,8.40
2019-04-22T21:14:01.711Z,9.33
2019-04-22T21:16:34.639Z,9.60
2019-04-22T21:18:52.669Z,9.47
2019-04-22T21:21:31.707Z,9.80
2019-04-22T21:23:54.447Z,9.23
2019-04-22T21:26:30.814Z,9.00
2019-04-22T21:28:54.031Z,8.90
2019-04-22T21:31:30.658Z,8.80
2019-04-22T21:34:01.061Z,8.93
2019-04-22T21:36:30.136Z,9.67
2019-04-22T21:38:53.012Z,9.57
2019-04-22T21:41:24.875Z,8.60
2019-04-22T21:43:58.088Z,8.93
2019-04-22T21:46:42.635Z,8.67
2019-04-22T21:49:28.002Z,9.80
2019-04-22T21:52:00.210Z,8.80
2019-04-22T21:54:33.996Z,8.93
2019-04-22T21:59:46.534Z,9.20
2019-04-22T22:02:27.841Z,9.17
2019-04-22T22:04:51.176Z,8.83
2019-04-22T22:07:13.860Z,8.23
2019-04-22T22:09:54.180Z,9.93
2019-04-22T22:12:37.743Z,9.17
2019-04-22T22:15:04.036Z,8.90
2019-04-22T22:17:35.399Z,9.53
2019-04-22T22:20:03.490Z,9.70
2019-04-22T22:22:45.574Z,9.27
2019-04-22T22:25:10.845Z,9.70
2019-04-22T22:27:40.712Z,9.00
2019-04-22T22:30:29.337Z,8.30
2019-04-22T22:32:40.698Z,8.87
2019-04-22T22:35:14.705Z,8.93
2019-04-22T22:37:50.372Z,8.70
2019-04-22T22:40:26.359Z,9.30
2019-04-22T22:42:56.994Z,8.97
2019-04-22T22:45:39.415Z,8.20
2019-04-22T22:51:15.165Z,9.23
2019-04-22T22:53:54.694Z,9.50
2019-04-22T22:56:34.135Z,9.30
2019-04-22T22:58:52.459Z,9.03
2019-04-22T23:01:27.790Z,9.37
2019-04-22T23:04:15.067Z,9.23
2019-04-22T23:06:33.583Z,9.57
2019-04-22T23:09:07.141Z,9.50
2019-04-22T23:11:45.725Z,9.27
2019-04-22T23:14:07.885Z,9.70
2019-04-22T23:16:33.951Z,9.30
2019-04-22T23:19:02.091Z,9.17
2019-04-22T23:21:38.530Z,9.40
2019-04-22T23:24:16.153Z,9.40
2019-04-22T23:26:58.672Z,9.47
2019-04-22T23:29:37.061Z,10.37
2019-04-22T23:32:08.958Z,9.27
2019-04-22T23:34:42.933Z,9.70
2019-04-22T23:37:28.987Z,9.27
2019-04-22T23:40:16.232Z,9.50
2019-04-22T23:42:41.780Z,9.70
2019-04-22T23:45:10.780Z,10.20
2019-04-22T23:47:32.422Z,9.70
2019-04-22T23:50:09.159Z,10.40
2019-04-22T23:52:47.959Z,10.83
2019-04-22T23:55:23.146Z,10.17
2019-04-22T23:57:57.121Z,9.60
